Cherokee Falls, South Carolina
Current Conditions -  °F | °C
As of 4:35 AM on Thursday 23 Oct 2014 (Local Time) from KEHO Reporting Station
Clear Clear  
Wind Chill: 36°   Ceiling: Unl
Heat Index: 40°   Visibility: 10mi
Dew Point: 36°   Wind: 5mph
Humidity: 88%   Direction: 250°WSW
Pressure: 30.08"   Gusts: NA
Location:  35.1147°N, 81.4908°W
Report Text: KEHO 230835Z AUTO 25004KT 10SM CLR 04/02 A3008 RMK AO2 T00430024
Loading
Personal Weather Stations






























Interactive Weather Map
Tropical Storm Tracking
New forecast layout! Learn more

10-Day Weather Forecast

Advertisements
Track Severe Weather on mobile